Time;durP1;ratioP1;P1;durP2;ratioP2;P2;SDS_P1;SDS_P2;PMS_P1;PMS_P2;Temp;Humidity;BMP_temperature;BMP_pressure;BME280_temperature;BME280_humidity;BME280_pressure;Samples;Min_cycle;Max_cycle;Signal;HPM_P1;HPM_P2
2022/09/25 00:02:02;;;;;;;34.95;23.92;;;;;;;10.74;74.09;101210.37;1699609;82;21765;-87
2022/09/25 00:04:28;;;;;;;31.65;22.25;;;;;;;10.76;74.04;101211.31;1690935;84;21980;-87
2022/09/25 00:06:55;;;;;;;33.40;23.57;;;;;;;10.78;74.02;101208.30;1719451;82;21093;-87
2022/09/25 00:09:22;;;;;;;31.55;22.27;;;;;;;10.79;74.02;101206.13;1690538;84;21083;-88
2022/09/25 00:11:58;;;;;;;32.78;22.05;;;;;;;10.80;74.05;101203.55;1720563;83;21079;-88
2022/09/25 00:14:25;;;;;;;35.50;21.87;;;;;;;10.81;74.00;101204.03;1700008;83;21079;-87
2022/09/25 00:16:52;;;;;;;30.75;21.62;;;;;;;10.83;74.11;101198.78;1690757;84;21813;-87
2022/09/25 00:22:07;;;;;;;31.48;22.17;;;;;;;10.88;74.07;101191.92;1691016;84;21571;-87
2022/09/25 00:24:34;;;;;;;28.73;22.02;;;;;;;10.88;74.05;101194.56;1716060;83;21110;-88
2022/09/25 00:27:01;;;;;;;33.30;22.58;;;;;;;10.90;74.11;101191.55;1716493;83;21087;-88
2022/09/25 00:29:29;;;;;;;31.55;22.70;;;;;;;10.95;74.14;101191.27;1695956;83;21818;-88
2022/09/25 00:31:56;;;;;;;36.25;23.42;;;;;;;10.98;74.09;101190.06;1703184;83;21035;-87
2022/09/25 00:34:23;;;;;;;35.10;22.75;;;;;;;10.99;74.04;101190.95;1695991;83;21095;-87
2022/09/25 00:36:50;;;;;;;37.65;24.43;;;;;;;10.99;74.08;101187.00;1710050;83;21180;-87
2022/09/25 00:39:17;;;;;;;41.18;26.37;;;;;;;11.00;74.13;101180.46;1708637;83;21067;-87
2022/09/25 00:41:44;;;;;;;39.63;26.27;;;;;;;11.04;74.13;101181.45;1714728;83;21877;-87
2022/09/25 00:44:55;;;;;;;36.03;24.82;;;;;;;11.06;74.09;101175.37;1701819;83;21062;-87
2022/09/25 00:47:56;;;;;;;33.55;24.55;;;;;;;11.05;74.02;101174.88;1691440;83;21101;-87
2022/09/25 00:50:34;;;;;;;34.30;24.20;;;;;;;11.06;74.07;101178.00;1682507;84;21119;-87
2022/09/25 00:53:08;;;;;;;32.45;23.05;;;;;;;11.08;74.13;101178.94;1685094;84;21285;-87
2022/09/25 00:55:35;;;;;;;31.77;24.40;;;;;;;11.10;74.10;101175.04;1717431;83;21797;-88
2022/09/25 00:58:02;;;;;;;35.08;23.85;;;;;;;11.11;74.08;101178.12;1719368;83;21106;-88
2022/09/25 01:00:29;;;;;;;34.60;23.90;;;;;;;11.11;74.04;101175.92;1673058;83;21055;-87
2022/09/25 01:02:56;;;;;;;36.55;23.98;;;;;;;11.10;74.02;101173.72;1672614;84;21065;-87
2022/09/25 01:05:27;;;;;;;33.48;25.23;;;;;;;11.12;74.06;101177.72;1691481;84;21053;-87
2022/09/25 01:07:56;;;;;;;31.52;23.95;;;;;;;11.11;74.02;101174.17;1698115;83;22551;-88
2022/09/25 01:10:23;;;;;;;36.00;23.83;;;;;;;11.14;74.08;101178.23;1699140;82;21097;-87
2022/09/25 01:12:50;;;;;;;34.50;23.87;;;;;;;11.15;74.05;101176.47;1703747;84;21079;-88
2022/09/25 01:15:19;;;;;;;35.20;24.18;;;;;;;11.17;74.07;101168.22;1706836;83;21095;-88
2022/09/25 01:17:57;;;;;;;31.65;23.60;;;;;;;11.20;74.12;101169.61;1704705;83;21605;-88
2022/09/25 01:20:35;;;;;;;34.30;23.87;;;;;;;11.22;74.04;101170.55;1682127;84;21566;-88
2022/09/25 01:23:13;;;;;;;34.85;22.82;;;;;;;11.21;73.99;101174.93;1671615;84;21093;-87
2022/09/25 01:26:00;;;;;;;34.33;22.65;;;;;;;11.21;73.98;101175.36;1671496;84;21066;-86
2022/09/25 01:29:06;;;;;;;30.23;22.50;;;;;;;11.24;73.96;101175.43;1545912;90;21210;-86
2022/09/25 01:32:04;;;;;;;34.15;23.30;;;;;;;11.21;73.84;101167.45;1581697;90;21617;-85
2022/09/25 01:35:13;;;;;;;33.53;23.15;;;;;;;11.15;73.98;101158.95;1628809;86;22678;-86
2022/09/25 01:37:59;;;;;;;31.87;23.38;;;;;;;11.21;74.10;101167.45;1628876;86;21814;-87
2022/09/25 01:40:37;;;;;;;30.82;23.52;;;;;;;11.23;74.16;101159.17;1628232;87;21126;-87
2022/09/25 01:43:15;;;;;;;31.87;22.37;;;;;;;11.27;74.15;101171.58;1628430;86;21123;-88
2022/09/25 01:46:00;;;;;;;33.50;23.42;;;;;;;11.28;74.16;101168.99;1628659;88;21100;-88
2022/09/25 01:48:55;;;;;;;31.10;22.22;;;;;;;11.31;74.11;101165.54;1628851;88;21475;-88
2022/09/25 01:51:39;;;;;;;32.85;22.73;;;;;;;11.31;74.06;101164.22;1626240;87;21068;-87
2022/09/25 01:58:32;;;;;;;32.88;22.22;;;;;;;11.28;74.04;101157.56;1634982;87;21162;-89
2022/09/25 02:01:07;;;;;;;31.97;22.73;;;;;;;11.22;74.00;101158.28;1632577;87;21623;-87
2022/09/25 02:03:40;;;;;;;31.40;23.00;;;;;;;11.22;74.19;101160.92;1629970;88;22453;-88
2022/09/25 02:06:08;;;;;;;26.87;21.35;;;;;;;11.22;74.17;101160.92;1691302;83;21082;-88
2022/09/25 02:09:02;;;;;;;32.80;22.65;;;;;;;11.21;74.14;101158.23;1720557;83;21031;-88
2022/09/25 02:11:33;;;;;;;29.52;22.20;;;;;;;11.19;74.17;101158.62;1688703;84;21079;-88
2022/09/25 02:14:10;;;;;;;32.65;23.70;;;;;;;11.18;74.29;101146.28;1679302;84;21054;-88
2022/09/25 02:16:42;;;;;;;31.70;24.25;;;;;;;11.17;74.33;101152.41;1698490;83;21806;-88
2022/09/25 02:22:22;;;;;;;35.23;22.98;;;;;;;11.17;74.49;101147.14;1689707;84;21114;-87
2022/09/25 02:24:55;;;;;;;30.57;22.87;;;;;;;11.16;74.54;101142.27;1696758;83;21646;-86
2022/09/25 02:27:23;;;;;;;31.42;23.55;;;;;;;11.18;74.68;101139.69;1715572;83;21075;-87
2022/09/25 02:29:51;;;;;;;29.72;23.32;;;;;;;11.18;74.67;101136.62;1708014;83;21752;-86
2022/09/25 02:32:27;;;;;;;31.33;22.17;;;;;;;11.20;74.76;101142.83;1691001;83;21090;-87
2022/09/25 02:34:56;;;;;;;33.08;22.13;;;;;;;11.21;74.75;101138.03;1691149;83;21095;-87
2022/09/25 02:37:23;;;;;;;30.75;21.80;;;;;;;11.21;74.73;101134.09;1692348;83;21493;-86
2022/09/25 02:39:52;;;;;;;31.45;22.98;;;;;;;11.20;74.73;101137.55;1721170;82;21120;-87
2022/09/25 02:42:40;;;;;;;33.40;24.25;;;;;;;11.19;74.75;101142.37;1698129;83;21949;-87
2022/09/25 02:46:09;;;;;;;32.55;24.43;;;;;;;11.20;74.85;101137.98;1690539;83;21050;-87
2022/09/25 02:48:59;;;;;;;37.00;23.95;;;;;;;11.21;74.82;101135.41;1711073;83;21075;-87
2022/09/25 02:51:59;;;;;;;31.85;24.15;;;;;;;11.21;74.91;101131.45;1734396;82;21074;-87
2022/09/25 02:54:52;;;;;;;34.25;24.72;;;;;;;11.23;74.89;101132.81;1733291;82;21524;-87
2022/09/25 02:57:41;;;;;;;33.28;24.65;;;;;;;11.20;74.87;101134.03;1727352;82;21759;-87
2022/09/25 03:00:12;;;;;;;34.85;25.30;;;;;;;11.16;74.96;101128.22;1721147;82;21023;-87
2022/09/25 03:02:39;;;;;;;37.15;25.77;;;;;;;11.12;75.01;101128.55;1723846;82;21622;-88
2022/09/25 03:05:06;;;;;;;37.15;24.75;;;;;;;11.13;75.07;101129.03;1754642;81;21055;-88
2022/09/25 03:08:36;;;;;;;29.25;23.70;;;;;;;11.11;75.12;101129.38;1742249;81;21698;-87
2022/09/25 03:10:02;;;;;;;35.00;24.60;;;;;;;11.09;75.09;101122.78;1726313;82;22133;-87
2022/09/25 03:12:32;;;;;;;34.20;26.95;;;;;;;11.08;75.19;101124.93;1670743;82;21066;-87
2022/09/25 03:14:59;;;;;;;33.83;25.77;;;;;;;11.08;75.22;101121.41;1689269;83;21099;-87
2022/09/25 03:17:26;;;;;;;33.40;25.37;;;;;;;11.08;75.27;101125.37;1705320;83;21057;-89
2022/09/25 03:19:54;;;;;;;35.50;24.20;;;;;;;11.06;75.29;101124.00;1761724;81;21547;-87
2022/09/25 03:22:27;;;;;;;39.35;24.35;;;;;;;11.08;75.34;101121.41;1663805;84;21782;-87
2022/09/25 03:24:54;;;;;;;36.35;24.60;;;;;;;11.07;75.35;101123.16;1668658;85;22209;-86
2022/09/25 03:27:21;;;;;;;34.33;23.83;;;;;;;11.06;75.31;101122.68;1669956;84;21075;-86
2022/09/25 03:29:49;;;;;;;34.98;25.12;;;;;;;11.05;75.28;101120.00;1747179;81;21286;-86
2022/09/25 03:32:16;;;;;;;33.75;24.35;;;;;;;11.05;75.32;101120.88;1685457;84;21099;-86
2022/09/25 03:34:43;;;;;;;33.08;23.38;;;;;;;11.05;75.38;101126.15;1753242;81;22751;-86
2022/09/25 03:37:10;;;;;;;32.83;23.52;;;;;;;11.05;75.40;101122.63;1683742;85;21083;-86
2022/09/25 03:39:36;;;;;;;33.38;24.37;;;;;;;11.08;75.52;101125.37;1683743;85;21055;-86
2022/09/25 03:42:04;;;;;;;36.50;23.45;;;;;;;11.07;75.39;101123.56;1734054;81;21129;-86
2022/09/25 03:44:31;;;;;;;32.73;22.58;;;;;;;11.04;75.39;101124.38;1731307;81;21676;-86
2022/09/25 03:46:59;;;;;;;32.05;23.22;;;;;;;11.05;75.50;101112.09;1732371;81;21698;-86
2022/09/25 03:49:26;;;;;;;32.17;22.35;;;;;;;11.05;75.50;101116.05;1735123;81;21079;-86
2022/09/25 03:51:53;;;;;;;29.87;22.58;;;;;;;11.06;75.57;101112.58;1730710;81;21133;-86
2022/09/25 03:54:19;;;;;;;33.90;22.67;;;;;;;11.05;75.58;101116.93;1760716;81;21067;-86
2022/09/25 03:56:46;;;;;;;30.48;21.57;;;;;;;11.04;75.63;101115.59;1691400;84;21090;-86
2022/09/25 03:59:13;;;;;;;30.92;22.10;;;;;;;11.04;75.61;101119.55;1720317;82;21871;-86
2022/09/25 04:01:41;;;;;;;30.85;21.57;;;;;;;10.86;75.61;101089.59;1691455;84;21069;-86
2022/09/25 04:04:08;;;;;;;30.30;22.20;;;;;;;11.04;75.77;101116.91;1687821;84;21132;-86
2022/09/25 04:06:35;;;;;;;32.20;23.07;;;;;;;11.06;75.79;101118.73;1691614;83;21097;-87
2022/09/25 04:09:18;;;;;;;31.55;22.60;;;;;;;11.05;75.77;101114.73;1691108;84;21034;-87
2022/09/25 04:15:48;;;;;;;31.10;22.45;;;;;;;11.07;75.85;101120.53;1699683;84;21115;-91
2022/09/25 04:22:13;;;;;;;34.20;23.52;;;;;;;11.05;75.90;101105.51;1700281;84;21115;-94
2022/09/25 04:24:47;;;;;;;30.37;21.37;;;;;;;11.06;75.81;101116.09;1700554;84;21846;-91
2022/09/25 04:35:28;;;;;;;31.55;23.45;;;;;;;11.08;76.10;101110.88;1700675;84;21284;-94
2022/09/25 04:37:55;;;;;;;29.25;22.15;;;;;;;11.13;76.20;101101.77;1679424;84;21216;-88
2022/09/25 04:40:22;;;;;;;28.90;20.68;;;;;;;11.15;76.23;101102.70;1699392;84;21540;-88
2022/09/25 04:46:52;;;;;;;30.55;21.23;;;;;;;11.14;76.14;101105.77;1745744;81;21047;-87
2022/09/25 04:49:19;;;;;;;26.45;19.55;;;;;;;11.16;76.15;101105.39;1754595;81;21048;-88
2022/09/25 04:51:47;;;;;;;27.65;18.77;;;;;;;11.16;76.14;101096.16;1685927;84;21610;-87
2022/09/25 04:54:15;;;;;;;24.65;19.12;;;;;;;11.15;76.14;101101.39;1730505;82;21051;-87
2022/09/25 04:56:45;;;;;;;27.40;19.70;;;;;;;11.18;76.21;101097.53;1739554;81;21771;-87
2022/09/25 04:59:16;;;;;;;28.95;20.77;;;;;;;11.19;76.15;101100.65;1700532;83;21070;-87
2022/09/25 05:01:44;;;;;;;30.30;17.73;;;;;;;11.21;76.19;101097.20;1716355;83;21097;-88
2022/09/25 05:04:10;;;;;;;29.57;18.70;;;;;;;11.23;76.16;101091.55;1716272;83;21115;-87
2022/09/25 05:06:37;;;;;;;28.95;18.75;;;;;;;11.24;76.13;101093.34;1715548;83;21068;-86
2022/09/25 05:09:05;;;;;;;30.17;18.42;;;;;;;11.27;76.08;101093.84;1747380;81;22660;-86
2022/09/25 05:11:32;;;;;;;25.90;18.20;;;;;;;11.29;76.10;101102.67;1715636;82;21027;-88
2022/09/25 05:14:00;;;;;;;23.52;17.23;;;;;;;11.32;76.11;101101.45;1716334;83;21106;-90
2022/09/25 05:16:27;;;;;;;22.70;17.50;;;;;;;11.34;76.10;101104.14;1716252;83;21081;-89
2022/09/25 05:18:55;;;;;;;27.17;17.95;;;;;;;11.39;76.13;101110.41;1716443;83;21058;-87
2022/09/25 05:21:23;;;;;;;25.40;18.27;;;;;;;11.42;76.06;101107.43;1716672;83;21770;-87
2022/09/25 05:24:13;;;;;;;24.72;17.52;;;;;;;11.44;76.03;101114.06;1737060;81;21090;-89
2022/09/25 05:26:40;;;;;;;27.65;19.65;;;;;;;11.46;76.03;101113.24;1734654;82;21117;-91
2022/09/25 05:29:08;;;;;;;27.05;17.95;;;;;;;11.49;76.04;101116.41;1718012;82;21682;-92
2022/09/25 05:31:35;;;;;;;26.30;17.32;;;;;;;11.55;76.12;101115.69;1708400;82;21075;-87
2022/09/25 05:34:07;;;;;;;26.37;17.42;;;;;;;11.61;76.10;101122.00;1707641;84;21194;-89
2022/09/25 05:40:45;;;;;;;24.80;17.45;;;;;;;11.74;76.04;101119.27;1745338;82;21039;-91
2022/09/25 05:43:30;;;;;;;23.05;16.97;;;;;;;11.79;75.78;101117.64;1729169;81;21071;-89
2022/09/25 05:50:54;;;;;;;22.70;17.73;;;;;;;11.81;75.73;101110.66;1721786;82;21526;-90
2022/09/25 05:53:21;;;;;;;23.90;18.00;;;;;;;11.89;75.77;101117.88;1703923;83;21040;-90
2022/09/25 05:56:06;;;;;;;26.37;18.37;;;;;;;11.89;75.59;101116.56;1704917;83;21104;-89
2022/09/25 05:59:15;;;;;;;23.55;16.75;;;;;;;11.92;75.55;101119.29;1699794;83;21807;-87
2022/09/25 06:01:58;;;;;;;21.12;17.32;;;;;;;11.95;75.53;101119.38;1623120;86;21397;-88
2022/09/25 06:04:34;;;;;;;27.07;16.70;;;;;;;11.99;75.45;101115.56;1634509;85;22609;-87
2022/09/25 06:07:02;;;;;;;26.42;17.50;;;;;;;12.03;75.32;101113.86;1670323;85;21107;-87
2022/09/25 06:09:29;;;;;;;22.98;18.73;;;;;;;12.03;75.34;101112.54;1629822;85;21126;-86
2022/09/25 06:11:56;;;;;;;24.00;18.00;;;;;;;12.08;75.42;101113.55;1623960;87;21084;-86
2022/09/25 06:14:24;;;;;;;23.98;17.80;;;;;;;12.15;75.39;101110.66;1654556;85;21098;-87
2022/09/25 06:16:58;;;;;;;21.73;17.12;;;;;;;12.23;75.40;101111.28;1618535;88;22500;-88
2022/09/25 06:19:24;;;;;;;;;;;;;;;12.32;75.35;101113.26;1665287;85;21236;-90
2022/09/25 06:25:41;;;;;;;22.25;15.90;;;;;;;12.53;75.25;101101.41;1625310;87;21111;-85
2022/09/25 06:28:08;;;;;;;23.42;17.52;;;;;;;12.70;75.20;101107.07;1636154;85;22448;-85
2022/09/25 06:30:35;;;;;;;20.82;16.57;;;;;;;12.78;74.99;101103.75;1606409;85;21727;-86
2022/09/25 06:33:08;;;;;;;20.10;16.30;;;;;;;12.88;74.86;101099.55;1637720;85;21111;-83
2022/09/25 06:35:43;;;;;;;20.92;16.42;;;;;;;12.97;74.67;101104.11;1655541;85;21613;-83
2022/09/25 06:38:10;;;;;;;23.85;16.80;;;;;;;13.05;74.37;101093.73;1661877;83;21357;-87
2022/09/25 06:40:39;;;;;;;21.97;16.30;;;;;;;13.12;74.19;101095.20;1705465;83;21094;-83
2022/09/25 06:43:08;;;;;;;21.68;16.07;;;;;;;13.21;74.05;101100.67;1738356;81;22798;-86
2022/09/25 06:45:37;;;;;;;20.62;15.78;;;;;;;13.32;73.93;101103.53;1684797;83;21029;-92
2022/09/25 06:48:10;;;;;;;24.65;19.90;;;;;;;13.47;73.87;101096.77;1701749;81;21635;-91
2022/09/25 06:50:51;;;;;;;24.82;19.30;;;;;;;13.61;73.66;101098.80;1734789;81;21073;-85
2022/09/25 06:53:19;;;;;;;52.88;33.90;;;;;;;13.72;73.43;101097.69;1735631;81;21072;-89
2022/09/25 06:55:47;;;;;;;27.07;19.62;;;;;;;13.85;73.07;101096.15;1699283;82;21233;-89
2022/09/25 06:58:18;;;;;;;31.30;22.30;;;;;;;13.96;72.65;101097.22;1698843;81;21099;-91
2022/09/25 07:00:47;;;;;;;25.00;20.30;;;;;;;14.07;72.44;101096.48;1664112;84;21087;-88
2022/09/25 07:06:01;;;;;;;21.93;17.02;;;;;;;14.32;72.21;101107.02;1666320;84;21075;-85
2022/09/25 07:08:28;;;;;;;20.15;17.42;;;;;;;14.42;71.91;101094.39;1647690;86;21814;-87
2022/09/25 07:10:56;;;;;;;22.52;17.25;;;;;;;14.50;71.67;101097.15;1622850;87;21138;-89
2022/09/25 07:13:28;;;;;;;24.90;18.75;;;;;;;14.58;71.44;101100.81;1650824;86;21133;-86
2022/09/25 07:15:57;;;;;;;21.70;18.27;;;;;;;14.71;71.38;101103.21;1647075;84;21580;-90
2022/09/25 07:18:24;;;;;;;22.93;18.23;;;;;;;14.78;70.68;101109.05;1719810;82;21303;-87
2022/09/25 07:21:14;;;;;;;21.80;18.42;;;;;;;14.84;70.47;101101.17;1700262;82;22588;-86
2022/09/25 07:23:41;;;;;;;23.85;17.73;;;;;;;14.92;70.33;101109.22;1713814;83;21150;-84
2022/09/25 07:26:11;;;;;;;23.52;18.10;;;;;;;15.00;70.17;101101.37;1718816;83;21087;-85
2022/09/25 07:28:39;;;;;;;23.05;17.80;;;;;;;15.06;70.08;101098.37;1714084;83;21531;-84
2022/09/25 07:31:12;;;;;;;24.23;20.00;;;;;;;15.13;70.04;101100.67;1709285;83;21135;-84
2022/09/25 07:33:39;;;;;;;28.92;21.45;;;;;;;15.22;70.07;101096.80;1707611;82;21166;-85
2022/09/25 07:36:08;;;;;;;32.33;21.75;;;;;;;15.33;70.03;101092.52;1701224;83;21048;-85
2022/09/25 07:38:35;;;;;;;26.10;20.48;;;;;;;15.44;69.88;101091.27;1704806;83;21055;-85
2022/09/25 07:41:05;;;;;;;28.17;21.27;;;;;;;15.60;69.74;101092.75;1710442;83;21131;-86
2022/09/25 07:43:32;;;;;;;19.23;17.10;;;;;;;15.70;69.38;101095.97;1691851;83;21135;-87
2022/09/25 07:46:32;;;;;;;22.85;17.52;;;;;;;15.81;69.15;101089.47;1715503;82;22577;-89
2022/09/25 07:48:59;;;;;;;22.07;15.83;;;;;;;15.91;68.87;101094.84;1720628;82;21091;-85
2022/09/25 07:51:26;;;;;;;17.85;15.95;;;;;;;16.01;68.22;101097.58;1698497;82;22018;-87
2022/09/25 07:53:53;;;;;;;18.37;15.08;;;;;;;16.07;67.93;101094.55;1700693;83;21087;-89
2022/09/25 07:56:21;;;;;;;19.02;14.80;;;;;;;16.15;67.73;101089.30;1705518;83;21078;-88
2022/09/25 07:58:54;;;;;;;18.48;15.23;;;;;;;16.23;67.42;101093.34;1707838;83;21779;-88
2022/09/25 08:01:21;;;;;;;17.52;14.23;;;;;;;16.28;67.18;101097.80;1720578;81;21059;-86
2022/09/25 08:03:48;;;;;;;18.07;15.15;;;;;;;16.29;66.52;101091.63;1719264;82;21068;-84
2022/09/25 08:06:15;;;;;;;19.90;14.75;;;;;;;16.29;66.08;101086.73;1696992;83;21597;-84
2022/09/25 08:08:43;;;;;;;17.92;14.28;;;;;;;16.27;66.08;101090.73;1701703;83;21600;-84
2022/09/25 08:11:14;;;;;;;18.32;15.05;;;;;;;16.34;66.08;101085.00;1713127;83;22550;-85
2022/09/25 08:13:41;;;;;;;20.52;15.90;;;;;;;16.43;65.72;101084.19;1707368;82;21071;-86
2022/09/25 08:16:14;;;;;;;19.00;14.73;;;;;;;16.50;65.56;101082.90;1698852;83;22251;-85
2022/09/25 08:18:44;;;;;;;19.50;15.30;;;;;;;16.59;65.32;101084.73;1704311;83;21825;-84
2022/09/25 08:21:13;;;;;;;16.23;14.13;;;;;;;16.67;65.01;101075.02;1699129;83;21052;-85
2022/09/25 08:23:41;;;;;;;19.42;14.23;;;;;;;16.78;64.98;101075.08;1702835;83;21831;-85
2022/09/25 08:26:08;;;;;;;16.42;13.98;;;;;;;16.95;64.70;101074.27;1703208;84;21069;-84
2022/09/25 08:28:35;;;;;;;16.35;14.00;;;;;;;17.00;64.43;101077.39;1712157;83;21079;-86
2022/09/25 08:31:02;;;;;;;16.02;14.33;;;;;;;17.04;64.14;101071.23;1709554;83;21177;-84
2022/09/25 08:33:31;;;;;;;18.92;14.43;;;;;;;17.07;63.87;101072.55;1700218;83;21615;-85
2022/09/25 08:36:00;;;;;;;17.80;14.80;;;;;;;17.08;63.49;101069.02;1698788;83;22591;-84
2022/09/25 08:38:27;;;;;;;24.60;15.53;;;;;;;17.08;63.44;101073.47;1717270;83;21036;-86
2022/09/25 08:41:15;;;;;;;18.27;14.65;;;;;;;17.02;63.15;101064.98;1719510;82;21071;-86
2022/09/25 08:44:04;;;;;;;17.37;15.58;;;;;;;16.98;63.11;101059.67;1723091;82;21027;-86
2022/09/25 08:49:36;;;;;;;21.12;16.52;;;;;;;16.90;62.99;101049.01;1708501;83;21811;-85
2022/09/25 08:52:07;;;;;;;19.35;15.50;;;;;;;16.87;62.90;101054.30;1718995;82;21101;-85
2022/09/25 08:54:36;;;;;;;20.67;16.87;;;;;;;16.79;63.10;101051.58;1704214;82;21384;-85
2022/09/25 08:57:39;;;;;;;16.85;15.13;;;;;;;16.80;63.19;101054.70;1716754;82;21098;-85
2022/09/25 09:00:20;;;;;;;18.73;16.35;;;;;;;16.84;63.25;101053.86;1735471;82;21097;-85
2022/09/25 09:02:55;;;;;;;22.10;15.70;;;;;;;16.92;63.13;101051.23;1724257;81;21935;-85
2022/09/25 09:05:33;;;;;;;22.80;16.60;;;;;;;16.98;62.91;101053.02;1723415;81;21078;-85
2022/09/25 09:08:13;;;;;;;18.30;16.40;;;;;;;17.07;63.00;101050.39;1709826;82;21106;-86
2022/09/25 09:10:53;;;;;;;23.15;17.77;;;;;;;17.18;63.00;101045.99;1712008;81;21082;-86
2022/09/25 09:13:45;;;;;;;20.97;16.40;;;;;;;17.30;62.91;101042.46;1689487;83;21968;-85
2022/09/25 09:16:25;;;;;;;20.20;16.93;;;;;;;17.33;62.62;101049.13;1750439;81;21806;-86
2022/09/25 09:18:54;;;;;;;21.15;18.10;;;;;;;17.40;62.43;101042.03;1716631;82;21110;-86
2022/09/25 09:21:39;;;;;;;20.70;18.40;;;;;;;17.54;62.46;101036.75;1737274;81;21070;-86
2022/09/25 09:24:30;;;;;;;20.72;18.15;;;;;;;17.58;62.09;101034.07;1730333;82;21703;-86
2022/09/25 09:27:14;;;;;;;25.02;20.25;;;;;;;17.71;62.30;101032.77;1739284;81;21078;-86
2022/09/25 09:29:52;;;;;;;23.90;18.77;;;;;;;17.78;62.03;101030.55;1741371;81;21916;-86
2022/09/25 09:32:30;;;;;;;20.97;18.42;;;;;;;17.79;61.84;101024.31;1755220;81;21143;-86
2022/09/25 09:35:16;;;;;;;24.50;19.07;;;;;;;17.88;61.94;101027.89;1689227;83;21110;-86
2022/09/25 09:37:58;;;;;;;19.87;17.80;;;;;;;17.95;61.55;101028.78;1708897;82;21082;-86
2022/09/25 09:40:56;;;;;;;20.68;17.50;;;;;;;17.92;61.23;101027.90;1711154;82;21537;-86
2022/09/25 09:43:52;;;;;;;20.17;17.62;;;;;;;17.92;61.15;101019.91;1749952;81;21600;-85
2022/09/25 09:46:55;;;;;;;22.40;18.45;;;;;;;17.98;61.20;101021.23;1719543;81;21051;-85
2022/09/25 09:49:40;;;;;;;22.62;18.87;;;;;;;18.01;61.12;101019.91;1721969;81;21039;-85
2022/09/25 09:52:18;;;;;;;24.07;19.30;;;;;;;18.03;61.04;101016.79;1694643;81;21142;-86
2022/09/25 09:55:03;;;;;;;25.52;20.30;;;;;;;18.09;61.11;101009.23;1698491;82;21095;-86
2022/09/25 09:57:34;;;;;;;23.07;18.40;;;;;;;18.09;60.86;101006.11;1729357;81;22438;-86
2022/09/25 10:00:08;;;;;;;22.30;18.45;;;;;;;18.09;60.93;101007.45;1667663;85;21143;-85
2022/09/25 10:02:43;;;;;;;22.87;19.17;;;;;;;17.96;60.21;101003.95;1670242;85;21155;-85
2022/09/25 10:05:47;;;;;;;21.82;19.32;;;;;;;17.81;60.33;101006.56;1723478;82;21070;-85
2022/09/25 10:08:15;;;;;;;21.97;18.77;;;;;;;17.68;60.20;101009.25;1718442;82;21087;-85
2022/09/25 10:10:58;;;;;;;20.25;17.42;;;;;;;17.52;60.38;101002.14;1739204;82;21879;-88
2022/09/25 10:13:32;;;;;;;23.75;18.48;;;;;;;17.43;60.43;101000.80;1719276;82;21583;-90
2022/09/25 10:16:10;;;;;;;21.25;18.50;;;;;;;17.25;60.32;101001.23;1739087;81;21675;-86
2022/09/25 10:19:06;;;;;;;22.00;18.32;;;;;;;17.13;60.55;100997.66;1747650;81;21147;-85
2022/09/25 10:21:44;;;;;;;20.15;17.07;;;;;;;17.02;60.68;100991.86;1718718;82;21102;-86
2022/09/25 10:24:12;;;;;;;21.60;18.15;;;;;;;16.87;60.72;100986.09;1709443;82;23521;-86
2022/09/25 10:26:40;;;;;;;21.90;17.55;;;;;;;16.83;60.97;100987.38;1687179;82;21103;-85
2022/09/25 10:29:26;;;;;;;23.83;19.35;;;;;;;16.80;61.13;100984.25;1703328;82;21072;-85
2022/09/25 10:32:02;;;;;;;23.52;19.73;;;;;;;16.71;61.08;100984.22;1728502;82;21075;-86
2022/09/25 10:34:31;;;;;;;24.92;19.27;;;;;;;16.61;61.08;100981.98;1719367;82;21521;-86
2022/09/25 10:36:58;;;;;;;22.37;19.20;;;;;;;16.56;61.25;100982.39;1730794;82;21740;-84
2022/09/25 10:39:32;;;;;;;27.22;19.48;;;;;;;16.51;61.29;100976.16;1679247;82;21044;-85
2022/09/25 10:42:01;;;;;;;25.35;19.80;;;;;;;16.50;61.39;100977.94;1724795;82;21035;-84
2022/09/25 10:44:32;;;;;;;23.62;19.48;;;;;;;16.50;61.63;100972.63;1722832;81;21075;-84
2022/09/25 10:50:19;;;;;;;25.00;18.45;;;;;;;16.41;61.58;100971.70;1728374;82;22488;-84
2022/09/25 10:52:54;;;;;;;23.27;20.05;;;;;;;16.36;61.83;100965.02;1721955;82;22149;-84
2022/09/25 10:55:34;;;;;;;25.88;19.52;;;;;;;16.31;61.84;100967.67;1713557;82;21075;-84
2022/09/25 10:58:19;;;;;;;23.87;20.23;;;;;;;16.30;62.10;100965.00;1731675;82;21070;-84
2022/09/25 11:00:56;;;;;;;21.50;18.60;;;;;;;16.24;61.93;100961.88;1709791;82;21130;-85
2022/09/25 11:03:28;;;;;;;24.82;19.77;;;;;;;16.18;62.01;100959.61;1732224;81;21765;-86
2022/09/25 11:06:00;;;;;;;23.15;19.77;;;;;;;16.13;62.19;100956.50;1754790;81;21140;-85
2022/09/25 11:08:31;;;;;;;22.25;17.65;;;;;;;16.10;62.29;100952.94;1730125;81;21075;-83
2022/09/25 11:11:01;;;;;;;22.65;19.20;;;;;;;16.05;62.23;100950.27;1721760;82;21647;-84
2022/09/25 11:13:49;;;;;;;22.15;18.20;;;;;;;16.00;62.36;100951.13;1681031;84;21087;-85
2022/09/25 11:16:16;;;;;;;21.40;19.17;;;;;;;15.94;62.36;100946.22;1753830;81;22416;-84
2022/09/25 11:18:56;;;;;;;24.65;19.87;;;;;;;16.01;62.62;100954.20;1722212;81;21604;-87
2022/09/25 11:21:34;;;;;;;20.50;18.17;;;;;;;16.05;62.57;100950.72;1737207;81;21098;-87
2022/09/25 11:24:18;;;;;;;24.70;20.40;;;;;;;16.05;62.64;100948.06;1735588;81;21064;-86
2022/09/25 11:27:33;;;;;;;24.25;19.50;;;;;;;16.13;62.76;100947.20;1677333;85;21059;-82
2022/09/25 11:30:11;;;;;;;29.90;22.17;;;;;;;16.22;62.79;100938.41;1691438;84;22760;-85
2022/09/25 11:33:13;;;;;;;23.07;18.80;;;;;;;16.31;62.56;100942.44;1738776;81;21036;-86
2022/09/25 11:36:01;;;;;;;26.82;18.55;;;;;;;16.36;62.34;100937.12;1755132;81;21075;-84
2022/09/25 11:41:56;;;;;;;21.07;18.02;;;;;;;16.38;62.00;100933.16;1723154;82;21830;-85
2022/09/25 11:44:53;;;;;;;20.80;18.12;;;;;;;16.35;61.92;100930.06;1731178;82;21802;-85
2022/09/25 11:47:42;;;;;;;19.95;16.75;;;;;;;16.35;62.05;100927.41;1664690;83;21112;-86
2022/09/25 11:50:15;;;;;;;19.50;16.05;;;;;;;16.42;62.02;100926.97;1732174;82;21289;-87
2022/09/25 11:53:31;;;;;;;20.20;16.45;;;;;;;16.44;61.79;100924.78;1745026;82;21086;-86
2022/09/25 11:56:29;;;;;;;20.20;16.82;;;;;;;16.44;61.82;100915.90;1744374;81;21043;-89
2022/09/25 11:59:09;;;;;;;22.27;18.05;;;;;;;16.47;61.91;100917.25;1709362;83;21657;-86
2022/09/25 12:01:44;;;;;;;24.45;18.15;;;;;;;16.42;61.62;100911.03;1731527;82;21098;-89
2022/09/25 12:04:32;;;;;;;19.55;17.05;;;;;;;16.39;61.66;100903.06;1729766;82;21155;-86
2022/09/25 12:07:10;;;;;;;18.55;16.25;;;;;;;16.38;61.74;100906.14;1728064;81;21133;-86
2022/09/25 12:10:08;;;;;;;20.45;15.90;;;;;;;16.41;61.67;100905.28;1738104;82;21118;-88
2022/09/25 12:12:49;;;;;;;20.48;15.25;;;;;;;16.41;61.58;100904.83;1731061;81;21766;-84
2022/09/25 12:15:48;;;;;;;14.63;12.80;;;;;;;16.32;61.36;100887.08;1733890;81;21127;-84
2022/09/25 12:18:43;;;;;;;16.62;12.70;;;;;;;16.43;60.95;100895.55;1733974;82;21685;-89
2022/09/25 12:21:14;;;;;;;17.37;13.75;;;;;;;16.44;60.96;100886.67;1733652;82;21306;-86
2022/09/25 12:24:17;;;;;;;13.20;11.80;;;;;;;16.47;60.94;100882.71;1694575;83;21192;-92
2022/09/25 12:27:12;;;;;;;14.33;11.55;;;;;;;16.51;60.79;100884.48;1660251;85;21854;-85
2022/09/25 12:29:53;;;;;;;15.80;13.68;;;;;;;16.50;60.02;100884.06;1625423;86;21619;-89
2022/09/25 12:32:38;;;;;;;18.45;15.45;;;;;;;16.50;60.13;100879.62;1631428;86;21592;-87
2022/09/25 12:35:37;;;;;;;15.07;13.47;;;;;;;16.53;60.23;100878.73;1627175;87;21169;-88
2022/09/25 12:38:45;;;;;;;14.13;10.98;;;;;;;16.49;59.98;100877.84;1610060;87;21441;-90
2022/09/25 12:41:34;;;;;;;13.85;11.22;;;;;;;16.43;59.46;100875.62;1596653;88;21779;-88
2022/09/25 12:44:19;;;;;;;13.15;10.20;;;;;;;16.42;59.01;100874.74;1618816;88;21205;-88